Time;durP1;ratioP1;P1;durP2;ratioP2;P2;SDS_P1;SDS_P2;PMS_P1;PMS_P2;Temp;Humidity;BMP_temperature;BMP_pressure;BME280_temperature;BME280_humidity;BME280_pressure;Samples;Min_cycle;Max_cycle;Signal;HPM_P1;HPM_P2
2024/01/28 00:01:58;;;;;;;9.10;6.87;;;-0.80;99.90;;;-0.37;100.00;99645.31;10285642;28;20237;-64
2024/01/28 00:07:01;;;;;;;8.77;7.77;;;-0.80;99.90;;;-0.27;100.00;99640.75;10280506;28;20259;-64
2024/01/28 00:12:06;;;;;;;8.80;7.53;;;-0.70;99.90;;;-0.39;100.00;99624.13;10283355;28;20317;-64
2024/01/28 00:17:10;;;;;;;9.87;7.10;;;-0.80;99.90;;;-0.35;100.00;99635.44;10282369;28;20231;-64
2024/01/28 00:22:14;;;;;;;8.10;7.20;;;-0.70;99.90;;;-0.32;100.00;99630.81;10280007;28;20233;-64
2024/01/28 00:27:17;;;;;;;9.23;7.20;;;-0.80;99.90;;;-0.39;100.00;99625.72;10284546;28;20738;-64
2024/01/28 00:32:22;;;;;;;10.63;7.70;;;-0.80;99.90;;;-0.36;100.00;99616.06;10282180;28;20227;-64
2024/01/28 00:37:25;;;;;;;9.10;6.97;;;-0.80;99.90;;;-0.42;100.00;99607.75;10283268;28;20237;-64
2024/01/28 00:42:28;;;;;;;7.63;6.77;;;-0.80;99.90;;;-0.50;100.00;99610.19;10282756;28;20237;-64
2024/01/28 00:47:33;;;;;;;8.30;6.03;;;-0.90;99.90;;;-0.42;100.00;99598.63;10283547;28;20231;-64
2024/01/28 00:52:36;;;;;;;6.70;5.57;;;-0.90;99.90;;;-0.46;100.00;99589.81;10281541;28;20222;-64
2024/01/28 00:57:39;;;;;;;8.40;5.87;;;-0.90;99.90;;;-0.43;100.00;99588.34;10289556;28;20233;-64
2024/01/28 01:02:44;;;;;;;8.70;5.87;;;-0.90;99.90;;;-0.47;100.00;99569.50;10339787;22;20645;-67
2024/01/28 01:07:47;;;;;;;6.63;5.70;;;-0.90;99.90;;;-0.49;100.00;99576.84;10356120;28;20278;-68
2024/01/28 01:12:50;;;;;;;8.03;5.33;;;-0.90;99.90;;;-0.48;100.00;99568.59;10382176;28;20239;-65
2024/01/28 01:17:55;;;;;;;10.93;5.80;;;-0.90;99.90;;;-0.47;100.00;99567.88;10397005;28;20674;-65
2024/01/28 01:22:58;;;;;;;7.70;6.00;;;-0.90;99.90;;;-0.52;100.00;99566.38;10371458;28;20604;-66
2024/01/28 01:28:01;;;;;;;5.83;5.20;;;-0.90;99.90;;;-0.49;100.00;99576.84;10392217;28;20224;-65
2024/01/28 01:33:06;;;;;;;8.60;5.17;;;-0.90;99.90;;;-0.44;100.00;99576.53;10395881;28;20294;-65
2024/01/28 01:38:10;;;;;;;9.93;6.20;;;-1.00;99.90;;;-0.43;100.00;99575.81;10369309;28;20220;-65
2024/01/28 01:43:13;;;;;;;9.70;7.37;;;-1.00;99.90;;;-0.52;100.00;99568.00;10366772;28;20241;-65
2024/01/28 01:48:18;;;;;;;10.33;7.97;;;-1.10;99.90;;;-0.49;100.00;99564.31;10363565;28;20321;-65
2024/01/28 01:53:21;;;;;;;9.67;7.30;;;-1.10;99.90;;;-0.51;100.00;99554.75;10362987;28;20311;-65
2024/01/28 01:58:25;;;;;;;6.50;5.90;;;-1.20;99.90;;;-0.51;100.00;99553.16;10371288;28;20616;-66
2024/01/28 02:03:29;;;;;;;7.63;5.53;;;-1.20;99.90;;;-0.71;100.00;99552.22;10361488;28;20237;-65
2024/01/28 02:08:33;;;;;;;7.00;4.80;;;-1.30;99.90;;;-0.85;100.00;99537.03;10358968;28;20592;-66
2024/01/28 02:13:36;;;;;;;8.73;6.03;;;-1.50;99.90;;;-0.96;100.00;99539.03;10363514;28;20380;-65
2024/01/28 02:18:41;;;;;;;6.53;5.60;;;-1.50;99.90;;;-0.98;100.00;99540.44;10360773;28;20581;-65
2024/01/28 02:23:45;;;;;;;7.07;5.77;;;-1.40;99.90;;;-0.94;100.00;99542.66;10361202;28;20237;-65
2024/01/28 02:28:48;;;;;;;6.93;6.17;;;-1.40;99.90;;;-0.91;100.00;99537.13;10362740;28;20241;-66
2024/01/28 02:33:52;;;;;;;7.53;5.80;;;-1.40;99.90;;;-0.83;100.00;99530.56;10360400;28;20233;-65
2024/01/28 02:38:58;;;;;;;8.37;6.77;;;-1.30;99.90;;;-0.80;100.00;99523.41;10361523;28;20312;-65
2024/01/28 02:44:01;;;;;;;7.63;5.40;;;-1.20;99.90;;;-0.74;100.00;99526.75;10361980;28;20287;-66
2024/01/28 02:49:05;;;;;;;8.23;5.50;;;-1.20;99.90;;;-0.79;100.00;99537.78;10374193;28;20231;-65
2024/01/28 02:54:09;;;;;;;6.00;5.50;;;-1.30;99.90;;;-0.80;100.00;99531.88;10358651;28;20274;-66
2024/01/28 02:59:13;;;;;;;6.20;5.60;;;-1.30;99.90;;;-0.71;100.00;99517.97;10358363;28;20223;-65
2024/01/28 03:04:17;;;;;;;7.37;6.27;;;-1.20;99.90;;;-0.83;100.00;99518.94;10358560;28;20230;-65
2024/01/28 03:09:21;;;;;;;6.77;6.17;;;-1.30;99.90;;;-0.82;100.00;99517.31;10357676;28;20807;-65
2024/01/28 03:14:26;;;;;;;6.33;5.60;;;-1.30;99.90;;;-0.86;100.00;99525.16;10358635;28;20602;-66
2024/01/28 03:19:29;;;;;;;6.77;6.17;;;-1.30;99.90;;;-0.93;100.00;99513.44;10357972;28;20224;-65
2024/01/28 03:24:33;;;;;;;9.53;6.67;;;-1.40;99.90;;;-0.79;100.00;99512.69;10356328;28;20755;-65
2024/01/28 03:29:36;;;;;;;6.63;5.93;;;-1.30;99.90;;;-0.83;100.00;99511.41;10362474;28;20749;-66
2024/01/28 03:34:39;;;;;;;9.63;6.97;;;-1.30;99.90;;;-0.96;100.00;99503.91;10357368;28;20234;-65
2024/01/28 03:39:44;;;;;;;9.03;6.57;;;-1.30;99.90;;;-1.01;100.00;99514.97;10354794;28;20624;-66
2024/01/28 03:44:47;;;;;;;7.53;6.80;;;-1.40;99.90;;;-0.74;100.00;99516.69;10357053;28;20329;-65
2024/01/28 03:49:50;;;;;;;8.73;6.33;;;-1.20;99.90;;;-0.81;100.00;99511.59;10356032;28;20232;-65
2024/01/28 03:54:55;;;;;;;8.20;6.27;;;-1.20;99.90;;;-0.88;100.00;99504.00;10356622;28;20248;-65
2024/01/28 03:59:58;;;;;;;6.50;5.90;;;-1.30;99.90;;;-0.84;100.00;99501.16;10362251;28;20238;-66
2024/01/28 04:05:01;;;;;;;8.07;6.00;;;-1.20;99.90;;;-0.95;100.00;99487.25;10356079;28;20315;-65
2024/01/28 04:10:07;;;;;;;7.23;6.53;;;-1.30;99.90;;;-1.06;100.00;99483.38;10358179;28;20255;-66
2024/01/28 04:15:11;;;;;;;7.60;6.13;;;-1.40;99.90;;;-1.00;100.00;99491.69;10356114;28;20259;-65
2024/01/28 04:20:14;;;;;;;9.43;6.90;;;-1.40;99.90;;;-1.10;100.00;99492.81;10356640;28;20319;-66
2024/01/28 04:25:19;;;;;;;10.30;7.90;;;-1.40;99.90;;;-0.97;100.00;99502.13;10373291;28;20230;-65
2024/01/28 04:30:22;;;;;;;7.63;6.43;;;-1.30;99.90;;;-1.00;100.00;99489.19;10377035;28;20236;-66
2024/01/28 04:35:25;;;;;;;8.40;7.60;;;-1.30;99.90;;;-0.96;100.00;99493.88;10372223;28;20260;-65
2024/01/28 04:40:30;;;;;;;7.73;7.03;;;-1.30;99.90;;;-1.02;100.00;99492.19;10378346;28;20233;-66
2024/01/28 04:45:33;;;;;;;9.60;6.70;;;-1.30;99.90;;;-1.09;100.00;99487.09;10365827;28;20233;-66
2024/01/28 04:50:36;;;;;;;7.77;6.87;;;-1.40;99.90;;;-1.07;100.00;99484.06;10376820;28;20226;-66
2024/01/28 04:55:41;;;;;;;8.00;7.20;;;-1.40;99.90;;;-1.20;100.00;99488.25;10376712;28;20318;-66
2024/01/28 05:00:44;;;;;;;8.13;7.00;;;-1.50;99.90;;;-1.07;100.00;99481.56;10366145;28;20226;-66
2024/01/28 05:05:47;;;;;;;9.17;6.63;;;-1.40;99.90;;;-1.05;100.00;99482.66;10376237;28;20243;-66
2024/01/28 05:10:52;;;;;;;8.83;6.83;;;-1.40;99.90;;;-1.03;100.00;99481.28;10363413;28;20229;-65
2024/01/28 05:15:56;;;;;;;7.33;6.60;;;-1.40;99.90;;;-1.03;100.00;99487.88;10349708;28;20221;-65
2024/01/28 05:21:00;;;;;;;6.57;5.97;;;-1.40;99.90;;;-1.06;100.00;99490.91;10354134;28;20273;-66
2024/01/28 05:26:05;;;;;;;7.10;6.30;;;-1.40;99.90;;;-1.06;100.00;99490.91;10356532;28;20313;-66
2024/01/28 05:31:09;;;;;;;7.40;6.70;;;-1.50;99.90;;;-1.06;100.00;99500.03;10352022;28;20386;-65
2024/01/28 05:36:13;;;;;;;8.23;6.30;;;-1.50;99.90;;;-1.02;100.00;99488.06;10346375;28;20581;-66
2024/01/28 05:41:18;;;;;;;7.60;6.10;;;-1.50;99.90;;;-1.01;100.00;99487.38;10349703;28;20241;-65
2024/01/28 05:46:21;;;;;;;6.03;5.50;;;-1.50;99.90;;;-1.13;100.00;99483.28;10352001;28;20231;-66
2024/01/28 05:51:25;;;;;;;7.30;6.10;;;-1.50;99.90;;;-1.11;100.00;99481.91;10354770;28;20842;-66
2024/01/28 05:56:30;;;;;;;8.77;6.63;;;-1.50;99.90;;;-1.04;100.00;99471.91;10347763;28;20319;-66
2024/01/28 06:01:33;;;;;;;6.90;6.20;;;-1.40;99.90;;;-1.06;100.00;99483.38;10354690;28;20236;-66
2024/01/28 06:06:36;;;;;;;7.00;6.13;;;-1.40;99.90;;;-1.14;100.00;99492.44;10351110;28;20597;-66
2024/01/28 06:11:43;;;;;;;7.20;6.10;;;-1.50;99.90;;;-1.16;100.00;99496.34;10356589;28;20257;-66
2024/01/28 06:16:46;;;;;;;6.63;6.03;;;-1.50;99.90;;;-1.11;100.00;99486.91;10349456;28;20251;-66
2024/01/28 06:21:50;;;;;;;6.67;5.10;;;-1.50;99.90;;;-1.21;100.00;99486.44;10358162;28;20232;-66
2024/01/28 06:26:55;;;;;;;6.70;6.20;;;-1.60;99.90;;;-1.14;100.00;99491.53;10363931;28;20230;-66
2024/01/28 06:31:58;;;;;;;9.67;7.20;;;-1.50;99.90;;;-1.13;100.00;99493.31;10364102;28;20725;-66
2024/01/28 06:37:01;;;;;;;6.37;5.87;;;-1.50;99.90;;;-1.10;100.00;99488.69;10357941;28;20593;-66
2024/01/28 06:42:06;;;;;;;7.63;6.10;;;-1.50;99.90;;;-1.10;100.00;99502.84;10356708;28;20242;-66
2024/01/28 06:47:09;;;;;;;6.93;6.33;;;-1.50;99.90;;;-1.02;100.00;99499.72;10355085;28;20230;-66
2024/01/28 06:52:13;;;;;;;8.90;6.93;;;-1.40;99.90;;;-1.00;100.00;99496.72;10352508;28;20255;-66
2024/01/28 06:57:19;;;;;;;7.07;6.23;;;-1.50;99.90;;;-0.96;100.00;99495.50;10352777;28;20238;-66
2024/01/28 07:02:24;;;;;;;6.00;5.40;;;-1.50;99.90;;;-0.95;100.00;99499.78;10350971;28;20995;-66
2024/01/28 07:07:28;;;;;;;6.20;5.27;;;-1.40;99.90;;;-0.98;100.00;99500.28;10354372;28;20235;-66
2024/01/28 07:12:32;;;;;;;6.43;5.93;;;-1.40;99.90;;;-0.87;100.00;99508.31;10350776;28;20237;-66
2024/01/28 07:17:36;;;;;;;7.80;7.10;;;-1.40;99.90;;;-0.83;100.00;99501.38;10353425;28;20592;-66
2024/01/28 07:22:39;;;;;;;7.27;6.53;;;-1.40;99.90;;;-0.87;100.00;99500.78;10352184;28;20412;-66
2024/01/28 07:27:43;;;;;;;8.10;7.40;;;-1.50;99.90;;;-0.81;100.00;99499.03;10352569;28;20235;-66
2024/01/28 07:32:46;;;;;;;8.80;8.10;;;-1.50;99.90;;;-0.55;100.00;99490.69;10342641;28;20298;-66
2024/01/28 07:37:50;;;;;;;8.93;8.13;;;-1.30;99.90;;;-0.27;100.00;99509.22;10353294;28;20743;-66
2024/01/28 07:42:55;;;;;;;8.37;7.50;;;-1.00;99.90;;;-0.01;100.00;99510.84;10350826;28;20286;-65
2024/01/28 07:47:58;;;;;;;6.93;6.33;;;-0.80;99.90;;;0.30;100.00;99514.66;10350313;28;20757;-66
2024/01/28 07:53:02;;;;;;;7.13;6.53;;;-0.50;99.90;;;0.54;98.16;99520.88;10346516;28;20230;-67
2024/01/28 07:58:06;;;;;;;7.00;6.40;;;-0.30;99.90;;;0.64;97.44;99508.72;10350338;28;20239;-67
2024/01/28 08:03:10;;;;;;;7.43;6.83;;;-0.20;99.90;;;0.94;96.98;99510.63;10349426;28;21196;-66
2024/01/28 08:08:13;;;;;;;8.70;7.87;;;0.10;99.90;;;1.10;95.62;99495.03;10347295;28;20236;-66
2024/01/28 08:13:21;;;;;;;8.03;7.33;;;0.40;99.90;;;1.41;95.13;99497.78;10349127;28;20274;-66
2024/01/28 08:18:24;;;;;;;8.00;7.40;;;0.60;99.90;;;1.87;93.10;99496.53;10348550;28;20232;-67
2024/01/28 08:23:29;;;;;;;9.60;8.80;;;1.10;99.90;;;1.94;90.62;99491.47;10360005;28;20257;-69
2024/01/28 08:28:33;;;;;;;8.47;7.73;;;1.20;99.90;;;1.87;90.20;99494.00;10354842;28;20241;-68
2024/01/28 08:33:36;;;;;;;8.80;8.10;;;1.00;99.90;;;1.57;90.23;99496.34;10355281;28;20592;-68
2024/01/28 08:38:40;;;;;;;9.90;8.97;;;0.80;99.90;;;1.63;92.24;99492.06;10348936;28;20226;-68
2024/01/28 08:43:44;;;;;;;9.17;8.40;;;1.10;99.90;;;2.17;91.04;99490.72;10347484;28;20702;-68
2024/01/28 08:48:47;;;;;;;6.97;6.43;;;1.40;99.90;;;2.31;91.25;99494.84;10350644;28;20245;-68
2024/01/28 08:53:51;;;;;;;7.23;6.53;;;1.70;99.90;;;2.62;90.87;99495.09;10360889;28;20238;-68
2024/01/28 08:58:56;;;;;;;7.23;6.60;;;2.00;99.90;;;2.44;89.32;99488.88;10354536;28;20307;-68
2024/01/28 09:03:59;;;;;;;6.97;6.37;;;2.00;99.90;;;2.95;89.57;99489.56;10354531;28;20266;-68
2024/01/28 09:09:07;;;;;;;7.73;6.07;;;2.40;99.90;;;2.96;91.31;99493.88;10347023;28;20256;-68
2024/01/28 09:14:12;;;;;;;6.77;6.17;;;2.50;99.90;;;3.22;90.84;99493.38;10346840;28;20236;-67
2024/01/28 09:19:15;;;;;;;6.77;6.10;;;2.70;99.90;;;3.52;89.41;99495.88;10352933;28;20317;-68
2024/01/28 09:24:19;;;;;;;7.50;6.43;;;3.10;99.90;;;3.63;88.57;99499.59;10349355;28;20233;-67
2024/01/28 09:29:25;;;;;;;6.50;5.87;;;3.30;99.90;;;3.94;89.61;99488.69;10347110;28;20265;-68
2024/01/28 09:34:29;;;;;;;7.00;6.30;;;3.60;99.90;;;4.34;88.93;99470.22;10342991;28;20233;-66
2024/01/28 09:39:32;;;;;;;6.80;6.30;;;4.00;99.90;;;4.64;89.48;99467.53;10349838;28;20225;-67
2024/01/28 09:44:37;;;;;;;7.90;7.20;;;4.30;99.90;;;5.01;89.15;99463.75;10347054;28;20321;-66
2024/01/28 09:49:41;;;;;;;7.23;6.63;;;4.60;99.90;;;5.34;85.88;99462.19;10347356;28;20237;-66
2024/01/28 09:54:45;;;;;;;6.70;6.20;;;5.00;99.90;;;5.37;86.14;99459.97;10347186;28;20235;-66
2024/01/28 09:59:51;;;;;;;7.40;6.70;;;5.00;99.90;;;5.36;85.23;99460.72;10346165;28;20246;-66
2024/01/28 10:04:55;;;;;;;7.27;6.67;;;5.10;99.90;;;5.58;86.02;99452.78;10344245;28;20637;-65
2024/01/28 10:09:58;;;;;;;6.60;6.10;;;5.20;99.90;;;5.76;88.60;99454.66;10343904;28;20238;-67
2024/01/28 10:15:06;;;;;;;5.83;5.43;;;5.50;99.90;;;6.15;89.82;99441.66;10342915;28;20227;-67
2024/01/28 10:20:10;;;;;;;6.97;6.37;;;5.90;99.90;;;6.48;86.69;99440.69;10344435;28;20230;-66
2024/01/28 10:25:15;;;;;;;6.47;5.90;;;6.20;99.90;;;6.66;85.05;99439.94;10346687;28;20744;-65
2024/01/28 10:30:20;;;;;;;8.13;7.47;;;6.20;99.90;;;6.83;83.76;99448.31;10342134;28;20281;-67
2024/01/28 10:35:25;;;;;;;9.17;8.27;;;6.30;99.90;;;6.69;83.23;99431.72;10342958;28;20245;-65
2024/01/28 10:40:33;;;;;;;7.97;7.27;;;6.30;99.90;;;6.91;85.02;99437.25;10348346;28;20245;-66
2024/01/28 10:45:42;;;;;;;8.07;7.37;;;6.50;99.90;;;7.20;83.33;99435.84;10345679;28;20241;-66
2024/01/28 10:50:47;;;;;;;11.07;9.97;;;6.80;99.90;;;7.42;82.78;99432.81;10345902;28;20233;-65
2024/01/28 10:55:51;;;;;;;14.80;10.40;;;7.10;99.90;;;7.65;82.23;99420.59;10348907;28;20341;-66
2024/01/28 11:00:56;;;;;;;9.67;7.43;;;7.30;99.90;;;7.81;82.81;99399.09;10347692;28;20218;-66
2024/01/28 11:06:00;;;;;;;9.47;7.23;;;7.40;99.90;;;7.90;82.43;99390.69;10350968;28;20277;-65
2024/01/28 11:11:04;;;;;;;7.77;7.07;;;7.60;99.90;;;8.26;81.45;99389.69;10379260;28;20332;-67
2024/01/28 11:16:12;;;;;;;7.50;6.80;;;7.90;99.90;;;8.44;81.80;99382.88;10392722;28;20712;-66
2024/01/28 11:21:20;;;;;;;6.10;5.60;;;8.10;99.90;;;8.73;81.25;99370.16;10399347;28;20320;-66
2024/01/28 11:26:26;;;;;;;5.77;5.27;;;8.40;99.90;;;9.02;79.72;99371.84;10393969;28;20234;-65
2024/01/28 11:31:37;;;;;;;5.57;5.18;;;8.70;99.90;;;9.27;76.13;99367.22;10401258;28;20312;-65
2024/01/28 11:36:44;;;;;;;4.18;3.80;;;9.00;99.90;;;9.58;61.37;99364.72;10400512;28;20230;-66
2024/01/28 11:41:48;;;;;;;3.70;3.47;;;9.30;99.90;;;10.13;54.71;99356.59;10402291;28;20771;-66
2024/01/28 11:46:53;;;;;;;4.47;2.85;;;9.90;99.90;;;10.44;55.42;99354.03;10400687;28;20717;-66
2024/01/28 11:51:56;;;;;;;4.65;3.05;;;10.20;99.90;;;10.75;51.54;99360.84;10397981;28;20244;-65
2024/01/28 11:57:00;;;;;;;2.95;2.75;;;10.40;98.80;;;10.80;52.59;99344.22;10386831;28;20227;-65
2024/01/28 12:02:06;;;;;;;2.17;1.98;;;10.40;98.90;;;11.14;47.42;99336.66;10358723;28;20326;-66
2024/01/28 12:07:09;;;;;;;2.55;2.00;;;10.70;95.90;;;11.44;43.33;99327.91;10383133;28;20230;-65
2024/01/28 12:12:13;;;;;;;1.92;1.80;;;11.00;91.30;;;11.46;40.76;99322.91;10402056;28;20249;-65
2024/01/28 12:17:17;;;;;;;1.90;1.80;;;11.10;86.60;;;11.63;37.11;99304.63;10396480;28;20226;-66
2024/01/28 12:22:20;;;;;;;1.83;1.73;;;11.30;80.70;;;11.89;37.65;99309.19;10361181;28;20674;-66
2024/01/28 12:27:23;;;;;;;1.95;1.85;;;11.50;79.80;;;11.95;35.76;99295.94;10358560;28;20321;-66
2024/01/28 12:32:28;;;;;;;1.90;1.80;;;11.50;76.30;;;12.08;32.83;99292.63;10362940;28;20672;-66
2024/01/28 12:37:31;;;;;;;1.80;1.70;;;11.80;71.20;;;12.09;33.81;99294.41;10381663;28;20264;-65
2024/01/28 12:42:35;;;;;;;1.80;1.70;;;11.80;71.90;;;12.04;33.89;99291.50;10358262;28;20232;-65
2024/01/28 12:47:40;;;;;;;1.95;1.85;;;11.60;72.40;;;12.24;34.04;99287.84;10355930;28;20230;-65
2024/01/28 12:52:44;;;;;;;2.00;1.90;;;11.70;73.10;;;12.34;33.23;99284.31;10357000;28;20241;-66
2024/01/28 12:57:47;;;;;;;1.73;1.73;;;11.80;72.60;;;12.13;31.36;99269.13;10350375;28;20236;-65
2024/01/28 13:02:52;;;;;;;1.70;1.60;;;11.70;66.80;;;12.20;33.72;99264.44;10353804;28;20226;-66
2024/01/28 13:07:55;;;;;;;1.40;1.40;;;11.60;71.50;;;12.14;33.10;99255.53;10355213;28;20255;-66
2024/01/28 13:12:59;;;;;;;2.50;2.30;;;11.50;70.40;;;12.14;34.15;99260.66;10348960;28;20222;-66
2024/01/28 13:18:04;;;;;;;1.70;1.60;;;11.60;71.40;;;12.48;31.61;99249.41;10353244;28;20777;-66
2024/01/28 13:23:27;;;;;;;1.40;1.30;;;12.00;68.40;;;12.61;30.87;99239.22;10352843;28;20232;-66
2024/01/28 13:28:30;;;;;;;1.48;1.38;;;12.20;66.20;;;12.71;30.44;99243.34;10354583;28;20230;-66
2024/01/28 13:33:35;;;;;;;1.88;1.77;;;12.20;66.20;;;12.80;31.65;99228.59;10354817;28;20748;-65
2024/01/28 13:38:38;;;;;;;1.60;1.50;;;12.30;66.60;;;12.62;33.21;99231.66;10371467;28;20226;-66
2024/01/28 13:43:41;;;;;;;1.60;1.60;;;12.00;70.10;;;12.59;32.15;99226.31;10369496;28;20230;-66
2024/01/28 13:48:46;;;;;;;1.40;1.30;;;12.00;67.60;;;12.45;33.41;99227.00;10354411;28;20589;-66
2024/01/28 13:53:49;;;;;;;1.48;1.42;;;11.80;70.10;;;12.66;32.77;99226.75;10353043;28;20231;-65
2024/01/28 13:58:53;;;;;;;2.75;2.55;;;12.00;68.40;;;12.66;31.25;99243.00;10358452;28;20218;-66
2024/01/28 14:03:57;;;;;;;2.22;2.13;;;12.10;66.40;;;12.42;32.92;99229.34;10357241;28;20236;-65
2024/01/28 14:09:00;;;;;;;1.80;1.67;;;11.80;68.60;;;12.45;30.85;99231.19;10357399;28;20241;-64
2024/01/28 14:14:03;;;;;;;1.58;1.48;;;11.90;64.60;;;12.43;31.34;99233.69;10355926;28;20230;-66
2024/01/28 14:19:08;;;;;;;2.58;1.60;;;11.90;66.10;;;12.51;31.09;99236.81;10360715;28;20222;-65
2024/01/28 14:24:11;;;;;;;1.73;1.63;;;11.80;67.00;;;12.35;31.83;99234.78;10354849;28;20230;-66
2024/01/28 14:29:14;;;;;;;1.77;1.67;;;11.70;66.60;;;12.47;30.71;99235.66;10354144;28;20226;-65
2024/01/28 14:34:19;;;;;;;1.75;1.65;;;11.70;65.80;;;12.67;30.42;99236.19;10358283;28;20233;-66
2024/01/28 14:39:25;;;;;;;2.00;1.90;;;12.00;65.60;;;12.73;31.11;99226.38;10356418;28;20722;-66
2024/01/28 14:44:28;;;;;;;3.10;2.80;;;12.20;65.20;;;12.45;32.24;99227.00;10350025;28;21275;-65
2024/01/28 14:49:33;;;;;;;2.30;2.10;;;11.80;67.80;;;12.09;34.67;99231.22;10354934;28;20321;-68
2024/01/28 14:54:36;;;;;;;2.22;2.13;;;11.40;71.20;;;11.87;35.39;99227.84;10350492;28;20226;-67
2024/01/28 14:59:39;;;;;;;2.67;2.47;;;11.10;74.30;;;11.56;37.72;99230.69;10353642;28;20226;-67
2024/01/28 15:04:44;;;;;;;2.50;2.40;;;10.70;77.40;;;11.20;40.03;99234.78;10358015;28;20240;-67
2024/01/28 15:09:47;;;;;;;2.65;2.45;;;10.30;82.00;;;10.93;40.08;99237.75;10355747;28;20978;-67
2024/01/28 15:14:50;;;;;;;3.65;2.97;;;10.10;82.90;;;10.80;41.81;99256.38;10352536;28;20252;-67
2024/01/28 15:19:55;;;;;;;3.10;2.80;;;9.90;84.60;;;10.73;40.18;99242.22;10355709;28;20364;-67
2024/01/28 15:24:59;;;;;;;2.72;2.53;;;9.90;81.20;;;10.61;40.29;99236.13;10357269;28;20253;-67
2024/01/28 15:30:05;;;;;;;3.42;3.13;;;9.70;81.00;;;10.77;37.20;99251.03;10353250;28;20233;-67
2024/01/28 15:35:10;;;;;;;3.38;3.17;;;9.90;77.20;;;10.50;39.00;99249.72;10358379;28;20603;-67
2024/01/28 15:40:13;;;;;;;3.30;3.10;;;9.70;79.90;;;10.14;41.36;99253.63;10354803;28;20230;-67
2024/01/28 15:45:16;;;;;;;3.42;3.10;;;9.30;82.50;;;9.83;43.37;99261.34;10355221;28;20236;-67
2024/01/28 15:50:21;;;;;;;5.20;4.70;;;9.00;85.70;;;9.67;45.34;99248.06;10358664;28;20595;-67
2024/01/28 15:55:24;;;;;;;3.88;3.58;;;8.80;90.00;;;9.54;45.19;99250.38;10355034;28;20258;-67
2024/01/28 16:00:34;;;;;;;4.13;3.80;;;8.70;90.30;;;9.28;45.84;99251.63;10356156;28;20226;-67
2024/01/28 16:05:39;;;;;;;3.40;3.20;;;8.50;90.50;;;9.20;45.85;99243.31;10355605;28;20234;-67
2024/01/28 16:10:42;;;;;;;4.43;4.03;;;8.40;90.40;;;8.79;49.61;99253.44;10352872;28;20603;-67
2024/01/28 16:15:45;;;;;;;4.95;4.55;;;8.00;93.90;;;8.37;48.00;99260.75;10362606;28;20635;-67
2024/01/28 16:20:50;;;;;;;3.90;3.60;;;7.60;92.70;;;8.19;47.99;99249.84;10362224;28;20246;-67
2024/01/28 16:25:54;;;;;;;3.30;2.92;;;7.40;92.50;;;8.06;45.67;99255.47;10361134;28;20229;-66
2024/01/28 16:30:58;;;;;;;3.33;3.10;;;7.40;88.50;;;8.12;44.15;99256.00;10360436;28;20257;-66
2024/01/28 16:36:03;;;;;;;3.30;3.10;;;7.40;87.20;;;8.12;43.20;99258.56;10369649;28;20347;-66
2024/01/28 16:41:06;;;;;;;3.47;3.27;;;7.60;85.00;;;8.22;43.93;99269.59;10360204;28;20230;-66
2024/01/28 16:46:09;;;;;;;3.30;3.10;;;7.60;87.20;;;7.97;44.61;99266.50;10366275;28;20321;-67
2024/01/28 16:51:14;;;;;;;3.87;3.57;;;7.40;88.90;;;7.93;45.84;99269.53;10365691;28;20230;-66
2024/01/28 16:56:18;;;;;;;3.93;3.63;;;7.30;90.00;;;7.78;47.56;99279.19;10369848;28;20614;-66
2024/01/28 17:01:21;;;;;;;4.27;3.97;;;7.10;91.50;;;7.61;45.95;99278.59;10357298;28;20234;-66
2024/01/28 17:06:25;;;;;;;4.33;4.03;;;7.10;90.20;;;7.45;47.63;99289.00;10357245;28;20280;-66
2024/01/28 17:11:28;;;;;;;4.53;4.20;;;6.80;91.60;;;7.34;46.27;99279.47;10354464;28;20602;-66
2024/01/28 17:16:32;;;;;;;3.90;3.60;;;6.90;90.30;;;7.25;48.00;99280.28;10353864;28;20726;-66
2024/01/28 17:21:36;;;;;;;4.20;3.93;;;6.70;91.10;;;6.92;58.99;99286.53;10354120;28;20936;-65
2024/01/28 17:26:41;;;;;;;5.07;4.70;;;6.00;99.90;;;6.38;61.26;99293.22;10362539;28;20324;-65
2024/01/28 17:31:45;;;;;;;7.97;7.27;;;5.30;99.90;;;5.58;64.35;99290.47;10348765;28;20226;-65
2024/01/28 17:36:49;;;;;;;8.20;7.40;;;4.70;99.90;;;5.24;64.95;99294.72;10348753;28;20226;-65
2024/01/28 17:41:53;;;;;;;3.77;3.47;;;4.40;99.90;;;4.95;68.77;99291.75;10348605;28;20245;-65
2024/01/28 17:46:56;;;;;;;9.93;7.80;;;4.10;99.90;;;4.65;66.92;99297.13;10350726;28;20222;-65
2024/01/28 17:52:02;;;;;;;5.90;5.43;;;3.90;99.90;;;4.67;65.24;99293.13;10347572;28;20222;-65
2024/01/28 17:57:06;;;;;;;4.63;4.33;;;3.80;99.90;;;4.47;64.72;99286.00;10348869;28;20686;-65
2024/01/28 18:02:09;;;;;;;9.90;8.90;;;3.80;99.90;;;4.49;67.34;99295.56;10352575;28;20225;-66
2024/01/28 18:07:13;;;;;;;4.93;4.53;;;3.70;99.90;;;4.51;69.16;99288.09;10356610;28;20767;-65
2024/01/28 18:12:16;;;;;;;4.60;4.30;;;3.60;99.90;;;3.85;72.61;99296.38;10344409;28;20226;-65
2024/01/28 18:17:20;;;;;;;5.87;5.37;;;3.10;99.90;;;3.38;75.75;99302.31;10357145;28;20225;-65
2024/01/28 18:22:24;;;;;;;5.57;5.17;;;2.70;99.90;;;3.26;76.97;99318.66;10362061;28;20225;-65
2024/01/28 18:27:28;;;;;;;5.13;4.73;;;2.40;99.90;;;3.12;76.53;99310.50;10370577;28;20709;-65
2024/01/28 18:32:31;;;;;;;16.13;12.30;;;2.30;99.90;;;3.14;76.82;99308.13;10365791;28;20257;-67
2024/01/28 18:37:35;;;;;;;7.13;6.63;;;2.30;99.90;;;3.13;78.43;99308.84;10360285;28;20229;-65
2024/01/28 18:42:39;;;;;;;6.43;5.83;;;2.20;99.90;;;2.61;79.14;99305.66;10362155;28;20255;-65
2024/01/28 18:47:42;;;;;;;6.23;5.00;;;2.00;99.90;;;2.38;81.01;99316.59;10360318;28;20550;-65
2024/01/28 18:52:46;;;;;;;6.50;6.00;;;1.80;99.90;;;2.30;80.98;99306.38;10361114;28;20226;-65
2024/01/28 18:57:50;;;;;;;7.53;7.03;;;1.70;99.90;;;1.96;82.56;99310.13;10365623;28;20321;-65
2024/01/28 19:02:57;;;;;;;6.40;5.83;;;1.40;99.90;;;1.98;83.72;99311.22;10358316;28;20623;-65
2024/01/28 19:08:02;;;;;;;6.77;6.17;;;1.40;99.90;;;1.97;82.92;99319.50;10352169;28;20245;-65
2024/01/28 19:13:07;;;;;;;7.27;6.37;;;1.40;99.90;;;2.04;82.40;99319.47;10352735;28;20237;-65
2024/01/28 19:18:11;;;;;;;11.30;9.97;;;1.50;99.90;;;2.02;82.48;99310.84;10354852;28;20745;-65
2024/01/28 19:23:16;;;;;;;12.90;10.73;;;1.40;99.90;;;2.05;81.91;99317.84;10358374;28;20257;-65
2024/01/28 19:28:19;;;;;;;5.40;5.00;;;1.40;99.90;;;2.06;81.01;99314.59;10359443;28;20257;-65
2024/01/28 19:33:22;;;;;;;5.53;5.13;;;1.50;99.90;;;2.01;82.12;99316.63;10354693;28;20238;-65
2024/01/28 19:38:27;;;;;;;6.47;5.97;;;1.50;99.90;;;1.77;82.30;99314.69;10348477;28;20226;-65
2024/01/28 19:43:30;;;;;;;8.00;7.20;;;1.30;99.90;;;1.99;81.49;99306.34;10348310;28;20333;-65
2024/01/28 19:48:34;;;;;;;7.80;7.00;;;1.40;99.90;;;1.94;81.80;99309.06;10343180;28;20235;-65
2024/01/28 19:53:38;;;;;;;22.37;14.63;;;1.40;99.90;;;1.91;81.07;99311.22;10350349;28;20240;-65
2024/01/28 19:58:43;;;;;;;11.53;9.10;;;1.40;99.90;;;1.87;80.88;99311.63;10347315;28;20613;-65
2024/01/28 20:03:46;;;;;;;8.37;7.43;;;1.40;99.90;;;1.89;82.04;99303.50;10345329;28;20230;-65
2024/01/28 20:08:51;;;;;;;5.70;5.20;;;1.40;99.90;;;1.85;82.80;99305.50;10347831;28;20710;-65
2024/01/28 20:13:54;;;;;;;5.67;5.17;;;1.30;99.90;;;1.76;82.25;99297.78;10342723;28;20235;-66
2024/01/28 20:18:58;;;;;;;6.00;5.50;;;1.30;99.90;;;1.73;83.80;99293.28;10341741;28;20279;-66
2024/01/28 20:24:03;;;;;;;6.67;6.07;;;1.20;99.90;;;1.74;84.13;99295.09;10346603;28;20230;-65
2024/01/28 20:29:06;;;;;;;7.90;7.00;;;1.10;99.90;;;1.73;84.54;99285.72;10346001;28;20227;-65
2024/01/28 20:34:09;;;;;;;7.00;6.30;;;1.10;99.90;;;1.70;85.06;99290.44;10347576;28;20230;-66
2024/01/28 20:39:14;;;;;;;6.13;5.63;;;1.10;99.90;;;1.68;84.98;99293.50;10343056;28;20796;-65
2024/01/28 20:44:18;;;;;;;6.73;6.13;;;1.10;99.90;;;1.42;87.24;99288.88;10342364;28;20265;-65
2024/01/28 20:49:21;;;;;;;6.80;6.20;;;0.90;99.90;;;1.52;86.63;99285.81;10347342;28;20226;-65
2024/01/28 20:54:27;;;;;;;5.70;5.23;;;1.00;99.90;;;1.42;87.04;99288.00;10345068;28;21054;-65
2024/01/28 20:59:30;;;;;;;7.27;6.67;;;0.90;99.90;;;1.47;87.78;99281.88;10343890;28;20291;-65
2024/01/28 21:04:33;;;;;;;6.30;5.67;;;0.90;99.90;;;1.34;88.41;99285.50;10347629;28;20712;-66
2024/01/28 21:09:39;;;;;;;7.10;6.47;;;0.80;99.90;;;1.43;88.80;99273.06;10345484;28;20238;-65